createdAt,value
2023-05-03T00:01:17.835Z,102243.13
2023-05-03T00:04:03.896Z,102243.06
2023-05-03T00:06:50.480Z,102251.78
2023-05-03T00:09:36.135Z,102241.38
2023-05-03T00:12:21.775Z,102240.44
2023-05-03T00:15:08.919Z,102242.09
2023-05-03T00:17:54.302Z,102238.53
2023-05-03T00:20:39.562Z,102245.34
2023-05-03T00:23:25.362Z,102247.84
2023-05-03T00:26:10.912Z,102235.56
2023-05-03T00:28:57.665Z,102242.44
2023-05-03T00:31:46.049Z,102242.47
2023-05-03T00:34:31.402Z,102239.88
2023-05-03T00:37:16.916Z,102242.44
2023-05-03T00:40:02.629Z,102244.16
2023-05-03T00:42:48.219Z,102238.97
2023-05-03T00:45:36.865Z,102233.66
2023-05-03T00:48:22.262Z,102231.94
2023-05-03T00:51:08.998Z,102235.50
2023-05-03T00:53:54.998Z,102228.44
2023-05-03T00:56:51.179Z,102229.19
2023-05-03T00:59:37.950Z,102226.56
2023-05-03T01:02:24.889Z,102224.00
2023-05-03T01:05:10.950Z,102224.97
2023-05-03T01:08:20.182Z,102217.16
2023-05-03T01:11:15.040Z,102213.66
2023-05-03T01:14:51.827Z,102216.25
2023-05-03T01:17:42.299Z,102207.59
2023-05-03T01:20:31.046Z,102211.06
2023-05-03T01:23:33.000Z,102208.47
2023-05-03T01:26:24.547Z,102206.69
2023-05-03T01:29:11.019Z,102204.16
2023-05-03T01:32:04.143Z,102198.22
2023-05-03T01:35:05.397Z,102203.66
2023-05-03T01:37:52.334Z,102199.34
2023-05-03T01:40:49.012Z,102190.63
2023-05-03T01:43:35.615Z,102194.94
2023-05-03T01:46:21.324Z,102186.25
2023-05-03T01:49:06.852Z,102191.56
2023-05-03T01:51:52.333Z,102192.56
2023-05-03T01:54:37.894Z,102177.78
2023-05-03T01:57:23.138Z,102189.94
2023-05-03T02:00:09.952Z,102188.22
2023-05-03T02:02:58.461Z,102183.03
2023-05-03T02:05:44.213Z,102184.91
2023-05-03T02:08:29.468Z,102177.94
2023-05-03T02:11:15.050Z,102168.44
2023-05-03T02:14:00.555Z,102168.47
2023-05-03T02:16:46.014Z,102174.59
2023-05-03T02:19:32.270Z,102172.00
2023-05-03T02:22:19.739Z,102172.00
2023-05-03T02:25:06.945Z,102178.13
2023-05-03T02:27:52.572Z,102168.56
2023-05-03T02:30:38.428Z,102170.31
2023-05-03T02:33:24.297Z,102169.44
2023-05-03T02:36:09.729Z,102157.28
2023-05-03T02:38:55.856Z,102163.28
2023-05-03T02:41:41.116Z,102171.06
2023-05-03T02:44:26.859Z,102162.38
2023-05-03T02:47:12.265Z,102167.66
2023-05-03T02:50:01.047Z,102164.13
2023-05-03T02:52:49.845Z,102159.75
2023-05-03T02:55:35.588Z,102158.81
2023-05-03T02:58:21.745Z,102164.88
2023-05-03T03:01:07.278Z,102155.38
2023-05-03T03:03:53.568Z,102159.72
2023-05-03T03:06:39.364Z,102155.31
2023-05-03T03:09:24.643Z,102163.00
2023-05-03T03:12:10.460Z,102151.59
2023-05-03T03:14:56.012Z,102164.50
2023-05-03T03:17:42.908Z,102153.91
2023-05-03T03:20:29.637Z,102153.78
2023-05-03T03:23:15.621Z,102158.94
2023-05-03T03:26:01.719Z,102156.34
2023-05-03T03:28:47.534Z,102158.94
2023-05-03T03:31:33.181Z,102161.56
2023-05-03T03:34:19.309Z,102152.69
2023-05-03T03:37:05.517Z,102157.81
2023-05-03T03:39:51.688Z,102157.81
2023-05-03T03:42:37.808Z,102158.59
2023-05-03T03:45:23.819Z,102150.94
2023-05-03T03:48:09.810Z,102159.75
2023-05-03T03:50:55.085Z,102152.00
2023-05-03T03:53:44.879Z,102153.88
2023-05-03T03:56:31.361Z,102159.22
2023-05-03T03:59:16.843Z,102155.03
2023-05-03T04:02:03.841Z,102148.19
2023-05-03T04:04:49.261Z,102157.00
2023-05-03T04:07:36.529Z,102145.66
2023-05-03T04:10:22.388Z,102154.44
2023-05-03T04:13:08.806Z,102148.38
2023-05-03T04:15:56.472Z,102144.00
2023-05-03T04:18:43.110Z,102146.69
2023-05-03T04:21:28.842Z,102141.47
2023-05-03T04:24:17.593Z,102141.56
2023-05-03T04:27:04.646Z,102137.28
2023-05-03T04:29:52.725Z,102142.50
2023-05-03T04:32:40.743Z,102147.66
2023-05-03T04:35:29.494Z,102146.72
2023-05-03T04:38:18.930Z,102150.19
2023-05-03T04:41:05.185Z,102153.63
2023-05-03T04:43:50.883Z,102157.88
2023-05-03T04:46:36.939Z,102151.81
2023-05-03T04:49:22.573Z,102150.00
2023-05-03T04:52:08.276Z,102151.66
2023-05-03T04:54:54.485Z,102158.53
2023-05-03T04:57:41.391Z,102156.72
2023-05-03T05:00:29.021Z,102157.53
2023-05-03T05:03:19.749Z,102159.06
2023-05-03T05:06:07.104Z,102158.03
2023-05-03T05:08:53.372Z,102155.28
2023-05-03T05:11:38.567Z,102155.22
2023-05-03T05:14:24.233Z,102158.59
2023-05-03T05:17:09.840Z,102157.72
2023-05-03T05:19:55.465Z,102153.41
2023-05-03T05:22:41.639Z,102153.53
2023-05-03T05:25:27.430Z,102158.88
2023-05-03T05:28:13.548Z,102162.44
2023-05-03T05:30:59.457Z,102167.81
2023-05-03T05:33:45.283Z,102170.69
2023-05-03T05:36:31.682Z,102179.69
2023-05-03T05:39:17.992Z,102174.69
2023-05-03T05:42:05.116Z,102175.88
2023-05-03T05:44:52.465Z,102183.13
2023-05-03T05:47:39.292Z,102188.66
2023-05-03T05:50:25.111Z,102192.44
2023-05-03T05:53:15.955Z,102191.88
2023-05-03T05:56:08.997Z,102196.50
2023-05-03T05:58:56.112Z,102200.28
2023-05-03T06:01:44.749Z,102203.09
2023-05-03T06:04:31.114Z,102205.94
2023-05-03T06:07:17.089Z,102200.84
2023-05-03T06:10:03.125Z,102194.88
2023-05-03T06:12:49.175Z,102195.88
2023-05-03T06:15:40.815Z,102200.31
2023-05-03T06:18:26.383Z,102196.94
2023-05-03T06:21:12.087Z,102190.97
2023-05-03T06:23:58.112Z,102198.06
2023-05-03T06:26:45.115Z,102179.88
2023-05-03T06:29:30.984Z,102182.63
2023-05-03T06:32:16.509Z,102181.00
2023-05-03T06:35:02.330Z,102183.72
2023-05-03T06:37:48.633Z,102175.13
2023-05-03T06:40:35.970Z,102170.91
2023-05-03T06:43:23.614Z,102171.00
2023-05-03T06:46:13.192Z,102165.03
2023-05-03T06:48:58.765Z,102156.44
2023-05-03T06:51:44.501Z,102153.91
2023-05-03T06:54:29.725Z,102163.63
2023-05-03T06:57:15.097Z,102151.53
2023-05-03T07:00:00.637Z,102157.75
2023-05-03T07:02:46.324Z,102150.94
2023-05-03T07:05:31.651Z,102143.22
2023-05-03T07:08:17.810Z,102140.69
2023-05-03T07:11:04.304Z,102145.19
2023-05-03T07:13:53.803Z,102144.44
2023-05-03T07:16:39.405Z,102148.88
2023-05-03T07:19:24.807Z,102135.81
2023-05-03T07:22:10.269Z,102135.00
2023-05-03T07:24:57.439Z,102139.41
2023-05-03T07:27:43.714Z,102125.56
2023-05-03T07:30:29.538Z,102125.56
2023-05-03T07:33:15.198Z,102119.53
2023-05-03T07:36:00.643Z,102124.81
2023-05-03T07:38:46.554Z,102111.75
2023-05-03T07:41:32.265Z,102117.06
2023-05-03T07:44:17.618Z,102117.97
2023-05-03T07:47:02.885Z,102112.78
2023-05-03T07:49:50.862Z,102104.97
2023-05-03T07:52:39.885Z,102101.41
2023-05-03T07:55:25.748Z,102099.63
2023-05-03T07:58:12.006Z,102102.25
2023-05-03T08:00:57.632Z,102106.56
2023-05-03T08:03:44.433Z,102105.72
2023-05-03T08:06:29.957Z,102102.19
2023-05-03T08:09:15.801Z,102110.97
2023-05-03T08:12:02.602Z,102116.25
2023-05-03T08:14:48.274Z,102115.41
2023-05-03T08:17:40.980Z,102116.31
2023-05-03T08:20:29.602Z,102109.38
2023-05-03T08:23:19.438Z,102109.44
2023-05-03T08:26:07.766Z,102113.00
2023-05-03T08:28:53.076Z,102109.56
2023-05-03T08:31:38.538Z,102116.56
2023-05-03T08:34:24.209Z,102109.66
2023-05-03T08:37:09.846Z,102111.50
2023-05-03T08:39:55.653Z,102106.38
2023-05-03T08:42:45.387Z,102104.69
2023-05-03T08:45:33.417Z,102099.53
2023-05-03T08:48:19.356Z,102108.34
2023-05-03T08:51:05.440Z,102097.94
2023-05-03T08:53:51.362Z,102104.13
2023-05-03T08:56:42.095Z,102097.16
2023-05-03T08:59:29.533Z,102093.72
2023-05-03T09:02:16.492Z,102091.16
2023-05-03T09:05:02.488Z,102092.97
2023-05-03T09:08:09.448Z,102089.50
2023-05-03T09:10:54.940Z,102087.72
2023-05-03T09:13:41.315Z,102083.34
2023-05-03T09:16:27.588Z,102084.19
2023-05-03T09:19:14.960Z,102088.66
2023-05-03T09:22:07.641Z,102089.53
2023-05-03T09:24:58.324Z,102085.19
2023-05-03T09:27:43.721Z,102068.53
2023-05-03T09:30:30.290Z,102068.59
2023-05-03T09:33:23.128Z,102059.81
2023-05-03T09:36:08.996Z,102063.34
2023-05-03T09:38:56.124Z,102062.50
2023-05-03T09:41:41.395Z,102060.78
2023-05-03T09:44:48.950Z,102053.78
2023-05-03T09:47:50.884Z,102051.19
2023-05-03T09:50:36.897Z,102048.59
2023-05-03T09:53:23.489Z,102038.13
2023-05-03T09:56:13.280Z,102038.13
2023-05-03T09:58:59.356Z,102034.63
2023-05-03T10:01:45.292Z,102037.25
2023-05-03T10:04:39.103Z,102042.50
2023-05-03T10:07:28.575Z,102049.50
2023-05-03T10:10:14.546Z,102052.16
2023-05-03T10:13:03.483Z,102053.03
2023-05-03T10:16:14.001Z,102053.88
2023-05-03T10:19:21.583Z,102068.78
2023-05-03T10:22:09.223Z,102063.53
2023-05-03T10:24:57.497Z,102070.53
2023-05-03T10:27:45.911Z,102069.66
2023-05-03T10:30:36.450Z,102066.16
2023-05-03T10:33:32.705Z,102073.19
2023-05-03T10:36:18.615Z,102072.31
2023-05-03T10:39:04.350Z,102068.81
2023-05-03T10:42:01.976Z,102060.91
2023-05-03T10:44:54.931Z,102060.94
2023-05-03T10:47:40.915Z,102058.28
2023-05-03T10:50:27.076Z,102056.53
2023-05-03T10:53:38.147Z,102058.28
2023-05-03T10:56:24.191Z,102053.91
2023-05-03T10:59:09.438Z,102049.53
2023-05-03T11:01:55.358Z,102053.91
2023-05-03T11:04:45.750Z,102040.75
2023-05-03T11:07:31.919Z,102045.13
2023-05-03T11:10:18.930Z,102042.50
2023-05-03T11:13:05.096Z,102047.78
2023-05-03T11:15:50.950Z,102041.63
2023-05-03T11:18:36.583Z,102031.13
2023-05-03T11:21:23.252Z,102034.59
2023-05-03T11:24:08.995Z,102039.00
2023-05-03T11:26:54.534Z,102030.22
2023-05-03T11:29:39.891Z,102027.59
2023-05-03T11:32:29.919Z,102023.22
2023-05-03T11:35:15.564Z,102024.09
2023-05-03T11:38:01.438Z,102016.22
2023-05-03T11:40:46.930Z,102022.34
2023-05-03T11:43:32.634Z,102019.72
2023-05-03T11:46:25.336Z,102011.84
2023-05-03T11:49:10.974Z,102013.59
2023-05-03T11:51:56.938Z,102017.97
2023-05-03T11:54:42.508Z,102012.69
2023-05-03T11:57:28.168Z,102010.91
2023-05-03T12:00:17.239Z,102012.63
2023-05-03T12:03:02.653Z,102006.44
2023-05-03T12:05:49.853Z,102003.75
2023-05-03T12:08:37.584Z,102001.97
2023-05-03T12:11:27.282Z,101998.47
2023-05-03T12:14:13.750Z,101994.97
2023-05-03T12:17:00.457Z,101990.50
2023-05-03T12:19:48.814Z,101991.34
2023-05-03T12:22:35.172Z,101989.53
2023-05-03T12:25:25.722Z,101986.94
2023-05-03T12:28:20.148Z,101989.59
2023-05-03T12:31:06.562Z,101986.09
2023-05-03T12:36:43.861Z,101979.97
2023-05-03T12:39:32.393Z,101984.34
2023-05-03T12:42:21.827Z,101976.44
2023-05-03T12:47:57.818Z,101981.78
2023-05-03T12:50:45.408Z,101968.66
2023-05-03T12:53:31.877Z,101969.59
2023-05-03T12:56:17.788Z,101970.47
2023-05-03T12:59:31.789Z,101966.13
2023-05-03T13:05:00.783Z,101971.47
2023-05-03T13:07:55.691Z,101958.38
2023-05-03T13:10:43.877Z,101948.69
2023-05-03T13:13:29.248Z,101945.03
2023-05-03T13:16:14.704Z,101946.53
2023-05-03T13:19:00.269Z,101941.66
2023-05-03T13:21:48.514Z,101936.00
2023-05-03T13:24:33.984Z,101938.25
2023-05-03T13:27:19.688Z,101936.19
2023-05-03T13:30:05.367Z,101936.94
2023-05-03T13:32:51.326Z,101938.19
2023-05-03T13:35:37.228Z,101939.44
2023-05-03T13:38:22.626Z,101943.44
2023-05-03T13:41:08.685Z,101937.31
2023-05-03T13:43:54.207Z,101936.75
2023-05-03T13:46:40.895Z,101934.63
2023-05-03T13:49:26.902Z,101932.56
2023-05-03T13:52:12.394Z,101935.81
2023-05-03T13:54:58.378Z,101932.63
2023-05-03T13:57:44.554Z,101928.44
2023-05-03T14:00:32.158Z,101927.59
2023-05-03T14:03:18.308Z,101930.28
2023-05-03T14:06:04.255Z,101939.06
2023-05-03T14:08:49.788Z,101926.72
2023-05-03T14:11:35.685Z,101932.59
2023-05-03T14:14:21.203Z,101924.19
2023-05-03T14:17:06.732Z,101913.16
2023-05-03T14:19:52.580Z,101911.59
2023-05-03T14:22:38.107Z,101915.16
2023-05-03T14:25:23.666Z,101910.28
2023-05-03T14:28:09.653Z,101913.75
2023-05-03T14:30:55.143Z,101906.94
2023-05-03T14:33:40.795Z,101922.53
2023-05-03T14:36:29.608Z,101914.28
2023-05-03T14:39:15.225Z,101913.81
2023-05-03T14:42:00.913Z,101907.81
2023-05-03T14:44:46.494Z,101905.16
2023-05-03T14:47:32.920Z,101896.19
2023-05-03T14:50:18.636Z,101887.16
2023-05-03T14:53:04.081Z,101886.16
2023-05-03T14:55:50.162Z,101879.09
2023-05-03T14:58:35.345Z,101873.00
2023-05-03T15:01:22.518Z,101872.09
2023-05-03T15:04:08.033Z,101865.19
2023-05-03T15:06:54.417Z,101863.47
2023-05-03T15:09:39.867Z,101862.53
2023-05-03T15:12:25.200Z,101853.63
2023-05-03T15:15:12.108Z,101858.19
2023-05-03T15:17:57.933Z,101846.81
2023-05-03T15:20:43.214Z,101839.75
2023-05-03T15:23:28.502Z,101844.31
2023-05-03T15:26:13.845Z,101836.47
2023-05-03T15:28:59.233Z,101837.38
2023-05-03T15:31:44.964Z,101836.56
2023-05-03T15:34:31.075Z,101834.81
2023-05-03T15:37:16.512Z,101840.09
2023-05-03T15:40:03.844Z,101834.81
2023-05-03T15:42:49.750Z,101834.03
2023-05-03T15:45:35.507Z,101837.69
2023-05-03T15:48:20.753Z,101832.59
2023-05-03T15:51:06.185Z,101834.53
2023-05-03T15:53:52.312Z,101823.25
2023-05-03T15:56:37.981Z,101811.88
2023-05-03T15:59:23.397Z,101810.25
2023-05-03T16:02:09.292Z,101810.22
2023-05-03T16:04:55.079Z,101811.13
2023-05-03T16:07:40.485Z,101806.75
2023-05-03T16:10:26.741Z,101813.03
2023-05-03T16:13:12.435Z,101806.19
2023-05-03T16:15:57.856Z,101807.22
2023-05-03T16:18:43.292Z,101810.03
2023-05-03T16:21:28.562Z,101810.97
2023-05-03T16:24:14.001Z,101802.22
2023-05-03T16:26:59.602Z,101808.38
2023-05-03T16:29:45.200Z,101802.19
2023-05-03T16:32:30.727Z,101797.78
2023-05-03T16:35:16.249Z,101797.72
2023-05-03T16:38:01.701Z,101795.00
2023-05-03T16:40:47.525Z,101789.66
2023-05-03T16:43:32.698Z,101786.03
2023-05-03T16:46:18.104Z,101786.81
2023-05-03T16:49:04.599Z,101783.09
2023-05-03T16:51:50.136Z,101782.03
2023-05-03T16:54:35.933Z,101779.28
2023-05-03T16:57:21.274Z,101772.03
2023-05-03T17:00:11.335Z,101771.06
2023-05-03T17:02:57.180Z,101776.47
2023-05-03T17:05:42.833Z,101767.06
2023-05-03T17:08:28.664Z,101762.06
2023-05-03T17:11:14.909Z,101761.44
2023-05-03T17:14:03.506Z,101753.69
2023-05-03T17:16:49.225Z,101759.22
2023-05-03T17:19:35.128Z,101754.88
2023-05-03T17:22:20.783Z,101745.31
2023-05-03T17:25:07.821Z,101744.47
2023-05-03T17:27:53.598Z,101741.09
2023-05-03T17:30:39.286Z,101745.56
2023-05-03T17:33:25.986Z,101739.53
2023-05-03T17:36:11.498Z,101735.25
2023-05-03T17:38:57.140Z,101730.91
2023-05-03T17:41:42.872Z,101723.97
2023-05-03T17:44:28.082Z,101725.81
2023-05-03T17:47:13.774Z,101721.50
2023-05-03T17:49:59.623Z,101720.66
2023-05-03T17:52:45.316Z,101716.41
2023-05-03T17:55:35.051Z,101719.09
2023-05-03T17:58:21.029Z,101706.00
2023-05-03T18:01:09.184Z,101715.66
2023-05-03T18:03:54.542Z,101707.84
2023-05-03T18:06:39.834Z,101705.25
2023-05-03T18:09:26.765Z,101703.53
2023-05-03T18:12:13.902Z,101702.66
2023-05-03T18:15:02.075Z,101686.94
2023-05-03T18:17:47.623Z,101689.56
2023-05-03T18:20:33.271Z,101692.25
2023-05-03T18:23:18.742Z,101696.63
2023-05-03T18:26:04.079Z,101691.41
2023-05-03T18:28:49.907Z,101691.41
2023-05-03T18:31:36.857Z,101701.94
2023-05-03T18:34:22.773Z,101702.81
2023-05-03T18:37:08.633Z,101691.44
2023-05-03T18:39:53.950Z,101687.09
2023-05-03T18:42:39.362Z,101694.06
2023-05-03T18:45:25.521Z,101692.31
2023-05-03T18:48:10.904Z,101694.94
2023-05-03T18:50:56.346Z,101686.19
2023-05-03T18:53:41.717Z,101691.44
2023-05-03T18:56:30.218Z,101682.72
2023-05-03T18:59:15.331Z,101681.81
2023-05-03T19:02:01.660Z,101680.94
2023-05-03T19:04:47.565Z,101680.03
2023-05-03T19:07:33.231Z,101679.13
2023-05-03T19:10:20.020Z,101681.75
2023-05-03T19:13:05.737Z,101674.75
2023-05-03T19:15:50.999Z,101664.28
2023-05-03T19:18:44.322Z,101653.78
2023-05-03T19:21:29.823Z,101654.66
2023-05-03T19:24:15.438Z,101650.28
2023-05-03T19:27:00.914Z,101648.50
2023-05-03T19:29:46.329Z,101639.78
2023-05-03T19:32:35.397Z,101645.03
2023-05-03T19:35:20.995Z,101646.75
2023-05-03T19:38:07.363Z,101650.22
2023-05-03T19:41:00.490Z,101652.84
2023-05-03T19:43:46.060Z,101649.34
2023-05-03T19:46:32.133Z,101649.34
2023-05-03T19:49:17.967Z,101639.72
2023-05-03T19:52:05.923Z,101630.97
2023-05-03T19:54:51.490Z,101637.06
2023-05-03T19:57:38.121Z,101628.31
2023-05-03T20:00:23.675Z,101623.09
2023-05-03T20:03:09.551Z,101622.16
2023-05-03T20:05:54.858Z,101611.69
2023-05-03T20:08:40.529Z,101611.69
2023-05-03T20:11:26.317Z,101616.94
2023-05-03T20:14:11.755Z,101617.78
2023-05-03T20:16:57.210Z,101606.41
2023-05-03T20:19:42.725Z,101616.00
2023-05-03T20:22:28.205Z,101621.25
2023-05-03T20:25:13.649Z,101618.63
2023-05-03T20:27:59.090Z,101622.94
2023-05-03T20:30:44.310Z,101606.38
2023-05-03T20:33:29.840Z,101593.31
2023-05-03T20:36:15.421Z,101594.22
2023-05-03T20:39:00.871Z,101619.53
2023-05-03T20:41:46.496Z,101608.16
2023-05-03T20:44:32.383Z,101615.09
2023-05-03T20:47:18.312Z,101611.59
2023-05-03T20:50:04.401Z,101617.69
2023-05-03T20:52:50.496Z,101622.00
2023-05-03T20:55:36.146Z,101621.97
2023-05-03T20:58:21.759Z,101614.97
2023-05-03T21:01:08.223Z,101614.06
2023-05-03T21:03:55.292Z,101609.69
2023-05-03T21:06:43.690Z,101600.06
2023-05-03T21:09:31.306Z,101600.03
2023-05-03T21:12:17.014Z,101591.31
2023-05-03T21:15:02.793Z,101600.88
2023-05-03T21:17:48.262Z,101588.66
2023-05-03T21:20:34.279Z,101587.78
2023-05-03T21:23:19.905Z,101597.38
2023-05-03T21:26:05.229Z,101599.94
2023-05-03T21:28:50.949Z,101597.31
2023-05-03T21:31:37.765Z,101595.53
2023-05-03T21:34:23.457Z,101588.56
2023-05-03T21:37:08.902Z,101584.19
2023-05-03T21:40:01.407Z,101589.44
2023-05-03T21:42:50.104Z,101578.97
2023-05-03T21:45:36.164Z,101561.50
2023-05-03T21:48:22.675Z,101553.66
2023-05-03T21:51:09.097Z,101554.50
2023-05-03T21:53:54.564Z,101555.34
2023-05-03T21:56:39.991Z,101563.19
2023-05-03T21:59:25.347Z,101556.16
2023-05-03T22:02:11.153Z,101544.81
2023-05-03T22:04:56.776Z,101522.97
2023-05-03T22:07:42.287Z,101531.66
2023-05-03T22:10:27.994Z,101536.84
2023-05-03T22:13:13.301Z,101522.84
2023-05-03T22:16:11.458Z,101532.38
2023-05-03T22:18:57.063Z,101541.03
2023-05-03T22:21:42.640Z,101546.16
2023-05-03T22:24:29.405Z,101529.59
2023-05-03T22:27:15.081Z,101539.06
2023-05-03T22:30:00.447Z,101543.34
2023-05-03T22:32:45.912Z,101544.13
2023-05-03T22:35:31.630Z,101533.63
2023-05-03T22:38:17.519Z,101535.25
2023-05-03T22:41:02.785Z,101543.03
2023-05-03T22:43:48.318Z,101535.97
2023-05-03T22:46:33.779Z,101541.97
2023-05-03T22:49:20.139Z,101542.78
2023-05-03T22:52:05.859Z,101540.16
2023-05-03T22:54:56.252Z,101545.34
2023-05-03T22:57:41.963Z,101536.66
2023-05-03T23:00:28.091Z,101537.50
2023-05-03T23:03:13.720Z,101541.00
2023-05-03T23:05:59.379Z,101543.63
2023-05-03T23:08:45.128Z,101543.63
2023-05-03T23:11:30.700Z,101536.72
2023-05-03T23:14:16.088Z,101544.56
2023-05-03T23:17:01.494Z,101539.41
2023-05-03T23:19:47.603Z,101534.19
2023-05-03T23:22:33.027Z,101529.91
2023-05-03T23:25:18.310Z,101527.38
2023-05-03T23:28:03.970Z,101521.31
2023-05-03T23:30:49.390Z,101533.53
2023-05-03T23:33:35.203Z,101537.00
2023-05-03T23:36:20.759Z,101528.25
2023-05-03T23:39:06.073Z,101526.53
2023-05-03T23:41:51.679Z,101517.81
2023-05-03T23:44:53.117Z,101523.03
2023-05-03T23:47:39.458Z,101521.28
2023-05-03T23:50:24.831Z,101516.88
2023-05-03T23:53:10.197Z,101514.25
2023-05-03T23:55:55.764Z,101511.63
2023-05-03T23:58:41.554Z,101514.22
